Detall de PIREP

Printer-friendly versionPDF version

[2014/09/13 16:08:00]
Flight IATA:CT1053
Pilot Number:012
Company ICAO:CAT
Aircraft Type:F50/A
PAX:50
Aircraft Registration:PAOB
Departing Airport: LICG
Destination Airport: LICD
Alternate Airport:LMML
Online: VATSIM
Route:ROBET M740 LESMI
Flight Level:F90
No Slew and time accel
No pause
Crash detect
Detect pilot in Cockpit between each 30 and 45 minutes
16:08 Zero fuel Weight: 37297 Lbs, Fuel Weight: 3635 Lbs
16:08 VATSIM:LICG 131555Z 34005KT 9999 SCT013 27/25 Q1016
16:08 VATSIM:LICD 131550Z 04008KT 9999 FEW045 27/22 Q1015
16:08 MEDITERRANEAN ODYSSEY
16:12 Parking Brakes off
16:15 Take-off
16:15 Take off Weight: 40849 Lbs
16:15 Wind: 327º @ 007 Knots Heading: 258º
16:15 POS N36º 48´ 53´´ E011º 57´ 36´´
16:15 Gear Up: 119 Knots
16:15 Flaps:1 at 119 Knots
16:16 Flaps:0 at 167 Knots
16:21 TOC
16:21 Fuel Weight: 3326 Lb
16:30 Wind:299º@014 Knots Heading: 158º Ground Speed: 259 Knots Altitude 9068 ft
16:35 TOD
16:35 Fuel Weight: 2864 Lb
16:39 Flaps:1 at 173 Knots
16:41 Flaps:2 at 150 Knots
16:42 Gear Down: 136 Knots
16:45 Wind:037º@008 Knots Heading: 253º Ground Speed: 146 Knots Altitude 1981 ft
16:48 Flaps:3 at 138 Knots
16:49 Flaps:4 at 132 Knots
16:49 Flaps:5 at 118 Knots
16:49 Flaps:6 at 116 Knots
16:52 TouchDown:Rate -245 ft/min Speed: 111 Knots
16:52 VATSIM:LICD 131550Z 04008KT 9999 FEW045 27/22 Q1015
16:52 Land
16:52 Wind:037º@008 Knots
16:52 Heading: 079º
16:52 Flight Duration: 00:37
16:52 Landing Weight: 39804 Lbs
16:52 POS N35º 29´ 48´´ E012º 36´ 57´´
16:53 Parking brakes on
16:53 Block to Block Duration: 00:41
16:53 Final Fuel: 2486 Lbls
16:53 Spent Fuel: 1148 Lbls
16:53 Flight Length: 122 NM
16:53 TOD Land Length: 45 NM

Exportar CSV

Powered by Drupal - Modified by Danger4k